createdAt,value
2018-06-12T00:01:36.862Z,5.37
2018-06-12T00:04:05.207Z,5.43
2018-06-12T00:06:33.519Z,4.93
2018-06-12T00:09:01.951Z,5.70
2018-06-12T00:11:30.314Z,5.50
2018-06-12T00:13:58.698Z,5.77
2018-06-12T00:16:27.037Z,6.40
2018-06-12T00:18:55.336Z,4.93
2018-06-12T00:21:23.659Z,6.63
2018-06-12T00:23:52.037Z,6.17
2018-06-12T00:26:20.391Z,6.10
2018-06-12T00:28:48.689Z,6.53
2018-06-12T00:31:17.013Z,6.53
2018-06-12T00:33:45.325Z,7.37
2018-06-12T00:36:13.632Z,7.17
2018-06-12T00:38:42.025Z,6.70
2018-06-12T00:41:10.352Z,6.60
2018-06-12T00:43:38.683Z,6.93
2018-06-12T00:46:07.007Z,7.00
2018-06-12T00:48:35.318Z,6.77
2018-06-12T00:51:03.645Z,7.73
2018-06-12T00:53:32.043Z,8.30
2018-06-12T00:56:00.352Z,7.80
2018-06-12T00:58:28.659Z,6.60
2018-06-12T01:00:57.005Z,7.77
2018-06-12T01:03:25.352Z,6.87
2018-06-12T01:05:53.705Z,6.87
2018-06-12T01:08:22.090Z,8.27
2018-06-12T01:10:50.433Z,8.57
2018-06-12T01:13:18.739Z,7.30
2018-06-12T01:15:47.103Z,8.90
2018-06-12T01:18:15.415Z,7.70
2018-06-12T01:20:43.799Z,8.83
2018-06-12T01:23:12.096Z,8.87
2018-06-12T01:25:40.414Z,8.57
2018-06-12T01:28:08.739Z,8.00
2018-06-12T01:30:37.029Z,8.30
2018-06-12T01:33:05.627Z,8.70
2018-06-12T01:35:34.010Z,7.63
2018-06-12T01:38:02.333Z,9.13
2018-06-12T01:40:30.624Z,7.77
2018-06-12T01:42:58.932Z,8.27
2018-06-12T01:45:27.279Z,8.40
2018-06-12T01:47:55.573Z,8.23
2018-06-12T01:50:23.927Z,8.73
2018-06-12T01:52:52.232Z,8.10
2018-06-12T01:55:20.573Z,9.97
2018-06-12T01:57:48.880Z,9.47
2018-06-12T02:00:17.330Z,9.80
2018-06-12T02:02:45.648Z,10.37
2018-06-12T02:05:13.946Z,8.57
2018-06-12T02:07:42.260Z,10.30
2018-06-12T02:10:10.611Z,8.77
2018-06-12T02:12:38.951Z,8.87
2018-06-12T02:15:07.315Z,9.33
2018-06-12T02:17:35.654Z,7.97
2018-06-12T02:20:04.024Z,9.67
2018-06-12T02:22:32.299Z,8.13
2018-06-12T02:25:00.621Z,9.90
2018-06-12T02:27:28.999Z,10.13
2018-06-12T02:29:57.291Z,9.83
2018-06-12T02:32:25.614Z,10.57
2018-06-12T02:34:53.923Z,9.80
2018-06-12T02:37:22.260Z,9.90
2018-06-12T02:39:50.576Z,10.67
2018-06-12T02:42:18.944Z,10.63
2018-06-12T02:44:47.233Z,10.20
2018-06-12T02:47:15.557Z,9.57
2018-06-12T02:49:43.947Z,10.63
2018-06-12T02:52:12.288Z,9.80
2018-06-12T02:54:40.732Z,10.13
2018-06-12T02:57:09.127Z,10.47
2018-06-12T02:59:37.475Z,9.53
2018-06-12T03:02:05.800Z,12.10
2018-06-12T03:04:34.120Z,11.53
2018-06-12T03:07:02.444Z,10.10
2018-06-12T03:09:30.815Z,12.73
2018-06-12T03:11:59.228Z,10.87
2018-06-12T03:14:27.663Z,13.67
2018-06-12T03:16:56.052Z,12.17
2018-06-12T03:19:24.403Z,10.93
2018-06-12T03:21:52.767Z,12.03
2018-06-12T03:24:21.188Z,11.70
2018-06-12T03:26:49.567Z,12.47
2018-06-12T03:29:17.943Z,12.47
2018-06-12T03:31:46.299Z,13.17
2018-06-12T03:34:14.660Z,11.47
2018-06-12T03:36:43.012Z,12.20
2018-06-12T03:39:11.363Z,10.77
2018-06-12T03:41:39.716Z,11.60
2018-06-12T03:44:08.036Z,10.20
2018-06-12T03:46:36.359Z,12.17
2018-06-12T03:49:04.719Z,10.20
2018-06-12T03:51:33.051Z,11.73
2018-06-12T03:54:01.376Z,13.07
2018-06-12T03:56:29.724Z,11.60
2018-06-12T03:58:58.032Z,10.77
2018-06-12T04:01:27.712Z,12.33
2018-06-12T04:03:56.088Z,12.10
2018-06-12T04:06:24.433Z,10.77
2018-06-12T04:08:52.760Z,12.30
2018-06-12T04:11:21.073Z,12.47
2018-06-12T04:13:49.372Z,12.77
2018-06-12T04:16:17.700Z,13.80
2018-06-12T04:18:46.088Z,14.67
2018-06-12T04:21:14.502Z,13.00
2018-06-12T04:23:42.843Z,15.57
2018-06-12T04:26:12.080Z,13.90
2018-06-12T04:28:40.493Z,13.30
2018-06-12T04:31:08.832Z,13.53
2018-06-12T04:33:37.223Z,13.80
2018-06-12T04:36:05.639Z,14.13
2018-06-12T04:38:33.988Z,12.07
2018-06-12T04:41:02.312Z,13.43
2018-06-12T04:43:30.652Z,13.30
2018-06-12T04:45:59.014Z,15.37
2018-06-12T04:48:27.372Z,22.37
2018-06-12T04:50:55.691Z,13.37
2018-06-12T04:53:24.041Z,14.33
2018-06-12T04:55:52.344Z,13.20
2018-06-12T04:58:20.679Z,13.80
2018-06-12T05:00:49.023Z,12.00
2018-06-12T05:03:17.344Z,12.60
2018-06-12T05:05:46.103Z,14.50
2018-06-12T05:08:14.475Z,14.93
2018-06-12T05:10:42.811Z,13.33
2018-06-12T05:13:11.336Z,16.03
2018-06-12T05:15:39.689Z,15.87
2018-06-12T05:18:08.087Z,12.73
2018-06-12T05:20:36.440Z,13.67
2018-06-12T05:23:05.078Z,17.03
2018-06-12T05:25:33.488Z,14.67
2018-06-12T05:28:01.833Z,16.27
2018-06-12T05:30:30.283Z,15.57
2018-06-12T05:32:58.623Z,14.27
2018-06-12T05:35:26.988Z,16.80
2018-06-12T05:37:55.341Z,14.83
2018-06-12T05:40:23.652Z,18.00
2018-06-12T05:42:52.026Z,17.87
2018-06-12T05:45:20.384Z,15.90
2018-06-12T05:47:48.935Z,18.53
2018-06-12T05:50:17.359Z,17.10
2018-06-12T05:52:45.715Z,16.57
2018-06-12T05:55:14.035Z,15.57
2018-06-12T05:57:42.412Z,14.40
2018-06-12T06:00:10.816Z,15.47
2018-06-12T06:02:39.142Z,17.17
2018-06-12T06:05:07.519Z,15.67
2018-06-12T06:07:35.854Z,15.40
2018-06-12T06:10:04.237Z,16.73
2018-06-12T06:12:32.640Z,15.07
2018-06-12T06:15:01.050Z,14.40
2018-06-12T06:17:29.468Z,15.23
2018-06-12T06:19:57.795Z,15.83
2018-06-12T06:22:26.189Z,15.07
2018-06-12T06:24:54.615Z,14.77
2018-06-12T06:27:22.985Z,15.00
2018-06-12T06:29:51.434Z,13.97
2018-06-12T06:32:19.783Z,14.60
2018-06-12T06:34:48.108Z,15.27
2018-06-12T06:37:16.464Z,13.00
2018-06-12T06:39:44.802Z,13.37
2018-06-12T06:42:13.153Z,12.43
2018-06-12T06:44:41.496Z,13.30
2018-06-12T06:47:09.783Z,12.63
2018-06-12T06:49:38.129Z,12.30
2018-06-12T06:52:06.563Z,13.60
2018-06-12T06:54:34.925Z,13.20
2018-06-12T06:57:03.393Z,12.50
2018-06-12T06:59:31.739Z,11.57
2018-06-12T07:02:00.082Z,13.67
2018-06-12T07:04:29.351Z,11.00
2018-06-12T07:06:57.682Z,10.00
2018-06-12T07:09:26.035Z,12.37
2018-06-12T07:11:54.447Z,11.23
2018-06-12T07:14:22.784Z,10.83
2018-06-12T07:16:51.139Z,12.03
2018-06-12T07:19:19.551Z,9.87
2018-06-12T07:21:47.937Z,11.90
2018-06-12T07:24:16.411Z,10.23
2018-06-12T07:26:44.863Z,10.07
2018-06-12T07:29:13.244Z,9.97
2018-06-12T07:31:46.064Z,8.40
2018-06-12T07:34:14.441Z,7.93
2018-06-12T07:36:42.899Z,9.60
2018-06-12T07:39:11.360Z,8.70
2018-06-12T07:41:39.717Z,8.30
2018-06-12T07:44:08.066Z,9.30
2018-06-12T07:46:36.455Z,8.90
2018-06-12T07:49:04.939Z,9.30
2018-06-12T07:51:33.410Z,9.73
2018-06-12T07:54:01.761Z,8.43
2018-06-12T07:56:30.114Z,9.77
2018-06-12T07:58:58.619Z,8.83
2018-06-12T08:01:27.045Z,8.30
2018-06-12T08:03:55.499Z,8.17
2018-06-12T08:06:23.808Z,8.57
2018-06-12T08:08:52.304Z,7.63
2018-06-12T08:11:20.701Z,8.07
2018-06-12T08:13:49.523Z,7.10
2018-06-12T08:16:17.893Z,7.13
2018-06-12T08:18:46.288Z,7.80
2018-06-12T08:21:14.650Z,6.70
2018-06-12T08:23:43.128Z,7.07
2018-06-12T08:26:11.435Z,8.03
2018-06-12T08:28:39.763Z,7.80
2018-06-12T08:31:08.202Z,6.70
2018-06-12T08:33:36.554Z,6.93
2018-06-12T08:36:04.867Z,6.60
2018-06-12T08:38:33.216Z,6.23
2018-06-12T08:41:01.577Z,8.27
2018-06-12T08:43:29.876Z,7.57
2018-06-12T08:45:58.296Z,6.77
2018-06-12T08:48:26.632Z,6.63
2018-06-12T08:50:54.998Z,7.20
2018-06-12T08:53:23.312Z,7.60
2018-06-12T08:55:51.680Z,8.13
2018-06-12T08:58:20.044Z,6.87
2018-06-12T09:00:48.429Z,7.47
2018-06-12T09:03:16.855Z,7.30
2018-06-12T09:05:45.196Z,7.77
2018-06-12T09:08:13.519Z,7.97
2018-06-12T09:10:41.838Z,7.43
2018-06-12T09:13:10.219Z,7.70
2018-06-12T09:15:38.626Z,7.97
2018-06-12T09:18:06.995Z,8.20
2018-06-12T09:20:35.313Z,7.53
2018-06-12T09:23:03.718Z,6.30
2018-06-12T09:25:32.104Z,6.13
2018-06-12T09:28:00.471Z,7.43
2018-06-12T09:30:28.823Z,6.70
2018-06-12T09:32:57.194Z,6.97
2018-06-12T09:35:25.620Z,7.33
2018-06-12T09:37:54.149Z,7.60
2018-06-12T09:40:22.519Z,8.80
2018-06-12T09:42:50.960Z,7.23
2018-06-12T09:45:19.299Z,7.83
2018-06-12T09:47:47.656Z,9.10
2018-06-12T09:50:16.009Z,8.90
2018-06-12T09:52:44.342Z,8.20
2018-06-12T09:55:12.707Z,7.40
2018-06-12T09:57:41.128Z,7.80
2018-06-12T10:00:09.495Z,7.93
2018-06-12T10:02:37.820Z,8.10
2018-06-12T10:05:06.212Z,8.27
2018-06-12T10:07:34.576Z,8.80
2018-06-12T10:10:02.920Z,6.97
2018-06-12T10:12:31.257Z,9.00
2018-06-12T10:14:59.596Z,7.87
2018-06-12T10:17:27.971Z,6.73
2018-06-12T10:19:56.284Z,6.33
2018-06-12T10:22:24.659Z,7.00
2018-06-12T10:24:52.964Z,7.23
2018-06-12T10:27:21.345Z,7.57
2018-06-12T10:29:49.712Z,5.20
2018-06-12T10:32:18.111Z,5.90
2018-06-12T10:34:46.439Z,6.70
2018-06-12T10:37:14.960Z,5.70
2018-06-12T10:39:43.243Z,7.63
2018-06-12T10:42:11.552Z,6.97
2018-06-12T10:44:39.876Z,7.87
2018-06-12T10:47:08.224Z,6.63
2018-06-12T10:49:36.628Z,8.13
2018-06-12T10:52:05.067Z,6.60
2018-06-12T10:54:33.404Z,6.87
2018-06-12T10:57:01.814Z,7.60
2018-06-12T10:59:30.202Z,7.33
2018-06-12T11:01:58.757Z,6.10
2018-06-12T11:04:27.200Z,5.80
2018-06-12T11:06:55.549Z,6.90
2018-06-12T11:09:23.899Z,7.10
2018-06-12T11:11:52.211Z,7.07
2018-06-12T11:14:20.566Z,6.10
2018-06-12T11:16:48.944Z,7.00
2018-06-12T11:19:17.285Z,6.47
2018-06-12T11:21:45.756Z,6.93
2018-06-12T11:24:14.094Z,6.13
2018-06-12T11:26:42.480Z,7.33
2018-06-12T11:29:10.820Z,7.17
2018-06-12T11:31:39.156Z,6.60
2018-06-12T11:34:07.540Z,7.03
2018-06-12T11:36:35.955Z,5.90
2018-06-12T11:39:06.543Z,7.37
2018-06-12T11:41:34.908Z,8.13
2018-06-12T11:44:03.345Z,6.40
2018-06-12T11:46:31.675Z,7.77
2018-06-12T11:49:00.099Z,7.80
2018-06-12T11:51:28.503Z,6.87
2018-06-12T11:53:57.069Z,6.00
2018-06-12T11:56:25.384Z,7.07
2018-06-12T11:58:53.736Z,8.13
2018-06-12T12:01:22.120Z,7.93
2018-06-12T12:03:51.019Z,8.43
2018-06-12T12:06:19.406Z,8.13
2018-06-12T12:08:47.757Z,8.00
2018-06-12T12:11:16.115Z,8.20
2018-06-12T12:13:44.469Z,8.37
2018-06-12T12:16:12.860Z,8.37
2018-06-12T12:18:41.282Z,8.80
2018-06-12T12:21:09.641Z,8.20
2018-06-12T12:23:37.984Z,8.87
2018-06-12T12:26:06.414Z,9.77
2018-06-12T12:28:34.803Z,10.63
2018-06-12T12:31:03.116Z,8.77
2018-06-12T12:33:31.528Z,10.83
2018-06-12T12:35:59.880Z,9.80
2018-06-12T12:38:28.268Z,10.70
2018-06-12T12:40:56.603Z,11.37
2018-06-12T12:43:24.941Z,10.17
2018-06-12T12:45:53.267Z,9.87
2018-06-12T12:48:21.672Z,9.47
2018-06-12T12:50:50.028Z,10.80
2018-06-12T12:53:18.335Z,10.87
2018-06-12T12:55:46.677Z,10.30
2018-06-12T12:58:14.978Z,11.17
2018-06-12T13:00:43.396Z,10.93
2018-06-12T13:03:11.752Z,10.50
2018-06-12T13:05:40.149Z,11.10
2018-06-12T13:08:08.482Z,10.07
2018-06-12T13:10:36.827Z,9.10
2018-06-12T13:13:05.181Z,8.97
2018-06-12T13:15:33.650Z,8.67
2018-06-12T13:18:02.033Z,10.33
2018-06-12T13:20:30.548Z,9.60
2018-06-12T13:22:58.916Z,9.27
2018-06-12T13:25:27.280Z,8.50
2018-06-12T13:27:55.651Z,8.93
2018-06-12T13:30:24.038Z,11.43
2018-06-12T13:32:52.376Z,13.43
2018-06-12T13:35:22.513Z,14.40
2018-06-12T13:37:51.064Z,16.63
2018-06-12T13:40:19.399Z,15.43
2018-06-12T13:42:47.731Z,16.60
2018-06-12T13:45:16.036Z,16.77
2018-06-12T13:47:44.551Z,15.53
2018-06-12T13:50:12.883Z,17.00
2018-06-12T13:52:41.287Z,14.53
2018-06-12T13:55:09.794Z,15.17
2018-06-12T13:57:38.241Z,13.40
2018-06-12T14:00:06.595Z,16.33
2018-06-12T14:02:35.134Z,14.50
2018-06-12T14:05:03.483Z,14.53
2018-06-12T14:07:31.860Z,13.60
2018-06-12T14:10:00.223Z,14.00
2018-06-12T14:12:28.576Z,10.23
2018-06-12T14:14:56.923Z,10.50
2018-06-12T14:17:25.307Z,11.77
2018-06-12T14:19:53.609Z,12.90
2018-06-12T14:22:21.957Z,13.40
2018-06-12T14:24:50.289Z,11.27
2018-06-12T14:27:18.619Z,10.50
2018-06-12T14:29:46.961Z,12.63
2018-06-12T14:32:15.291Z,12.47
2018-06-12T14:34:43.674Z,10.07
2018-06-12T14:37:12.099Z,10.67
2018-06-12T14:39:40.420Z,12.27
2018-06-12T14:42:08.799Z,30.10
2018-06-12T14:44:37.234Z,35.43
2018-06-12T14:47:05.566Z,24.13
2018-06-12T14:49:33.895Z,23.80
2018-06-12T14:52:02.256Z,20.47
2018-06-12T14:54:30.651Z,42.37
2018-06-12T14:56:59.007Z,39.87
2018-06-12T14:59:27.323Z,29.63
2018-06-12T15:01:55.659Z,20.57
2018-06-12T15:04:25.236Z,15.33
2018-06-12T15:06:53.592Z,14.43
2018-06-12T15:09:21.971Z,14.50
2018-06-12T15:11:50.364Z,12.93
2018-06-12T15:14:18.883Z,10.17
2018-06-12T15:16:47.283Z,12.27
2018-06-12T15:19:15.659Z,10.83
2018-06-12T15:21:44.122Z,10.90
2018-06-12T15:24:12.490Z,11.57
2018-06-12T15:26:40.968Z,11.07
2018-06-12T15:29:09.460Z,11.07
2018-06-12T15:31:37.892Z,12.30
2018-06-12T15:34:06.346Z,11.53
2018-06-12T15:36:34.702Z,12.43
2018-06-12T15:39:03.227Z,12.23
2018-06-12T15:41:31.627Z,11.83
2018-06-12T15:44:00.022Z,11.83
2018-06-12T15:46:28.432Z,10.83
2018-06-12T15:48:56.778Z,12.27
2018-06-12T15:51:25.200Z,11.97
2018-06-12T15:53:53.537Z,10.03
2018-06-12T15:56:21.933Z,11.07
2018-06-12T15:58:50.320Z,11.53
2018-06-12T16:01:18.694Z,12.03
2018-06-12T16:03:47.075Z,10.77
2018-06-12T16:06:15.428Z,12.07
2018-06-12T16:08:43.833Z,13.43
2018-06-12T16:11:12.173Z,11.00
2018-06-12T16:13:41.311Z,11.77
2018-06-12T16:16:10.214Z,12.87
2018-06-12T16:18:38.581Z,12.30
2018-06-12T16:21:06.957Z,12.20
2018-06-12T16:23:35.464Z,13.03
2018-06-12T16:26:03.862Z,11.93
2018-06-12T16:28:32.229Z,10.37
2018-06-12T16:31:00.548Z,14.17
2018-06-12T16:33:28.906Z,10.87
2018-06-12T16:35:57.255Z,12.93
2018-06-12T16:38:25.608Z,11.70
2018-06-12T16:40:54.031Z,11.87
2018-06-12T16:43:22.395Z,12.23
2018-06-12T16:45:51.159Z,12.43
2018-06-12T16:48:19.607Z,13.57
2018-06-12T16:50:47.919Z,11.60
2018-06-12T16:53:16.282Z,11.80
2018-06-12T16:55:44.700Z,10.87
2018-06-12T16:58:13.010Z,12.80
2018-06-12T17:00:41.365Z,13.43
2018-06-12T17:03:09.680Z,14.30
2018-06-12T17:05:38.021Z,11.50
2018-06-12T17:08:06.356Z,14.43
2018-06-12T17:10:34.788Z,12.70
2018-06-12T17:13:03.152Z,12.20
2018-06-12T17:15:31.489Z,12.03
2018-06-12T17:17:59.891Z,12.17
2018-06-12T17:20:28.293Z,12.07
2018-06-12T17:22:56.643Z,12.00
2018-06-12T17:25:25.051Z,9.60
2018-06-12T17:27:53.390Z,10.40
2018-06-12T17:30:21.804Z,11.43
2018-06-12T17:32:50.256Z,10.33
2018-06-12T17:35:18.677Z,10.20
2018-06-12T17:37:47.003Z,9.70
2018-06-12T17:40:15.337Z,9.30
2018-06-12T17:42:43.705Z,10.23
2018-06-12T17:45:12.027Z,10.77
2018-06-12T17:47:40.384Z,8.63
2018-06-12T17:50:08.735Z,9.03
2018-06-12T17:52:37.103Z,8.87
2018-06-12T17:55:05.408Z,9.40
2018-06-12T17:57:33.751Z,8.73
2018-06-12T18:00:02.115Z,8.40
2018-06-12T18:02:30.423Z,9.30
2018-06-12T18:04:58.791Z,9.97
2018-06-12T18:07:27.115Z,10.47
2018-06-12T18:09:55.438Z,9.57
2018-06-12T18:12:23.801Z,10.53
2018-06-12T18:14:52.200Z,11.23
2018-06-12T18:17:20.603Z,9.87
2018-06-12T18:19:54.035Z,9.57
2018-06-12T18:22:22.423Z,11.07
2018-06-12T18:24:50.854Z,9.80
2018-06-12T18:27:19.101Z,11.57
2018-06-12T18:29:47.453Z,10.80
2018-06-12T18:32:15.793Z,11.23
2018-06-12T18:34:44.095Z,10.27
2018-06-12T18:37:12.454Z,10.80
2018-06-12T18:39:40.763Z,11.03
2018-06-12T18:42:09.168Z,9.77
2018-06-12T18:44:37.492Z,10.37
2018-06-12T18:47:05.809Z,10.37
2018-06-12T18:49:34.103Z,9.97
2018-06-12T18:52:02.455Z,10.43
2018-06-12T18:54:30.748Z,10.50
2018-06-12T18:56:59.088Z,10.43
2018-06-12T18:59:27.380Z,9.73
2018-06-12T19:01:55.737Z,10.40
2018-06-12T19:04:24.046Z,11.87
2018-06-12T19:06:52.438Z,11.17
2018-06-12T19:09:20.787Z,11.90
2018-06-12T19:11:49.078Z,9.87
2018-06-12T19:14:17.453Z,10.27
2018-06-12T19:16:45.764Z,10.33
2018-06-12T19:19:14.165Z,10.73
2018-06-12T19:21:42.473Z,10.63
2018-06-12T19:24:10.795Z,12.63
2018-06-12T19:26:39.105Z,11.60
2018-06-12T19:29:07.393Z,9.43
2018-06-12T19:31:35.700Z,12.43
2018-06-12T19:34:04.049Z,10.53
2018-06-12T19:36:32.465Z,11.80
2018-06-12T19:39:00.779Z,11.97
2018-06-12T19:41:29.075Z,12.50
2018-06-12T19:43:57.391Z,10.83
2018-06-12T19:46:25.785Z,11.47
2018-06-12T19:48:54.164Z,17.07
2018-06-12T19:51:22.566Z,15.47
2018-06-12T19:53:50.913Z,12.10
2018-06-12T19:56:19.238Z,12.13
2018-06-12T19:58:47.531Z,10.23
2018-06-12T20:01:15.891Z,11.40
2018-06-12T20:03:44.272Z,9.20
2018-06-12T20:06:12.616Z,10.57
2018-06-12T20:08:40.935Z,10.53
2018-06-12T20:11:09.291Z,10.73
2018-06-12T20:13:37.606Z,11.77
2018-06-12T20:16:05.972Z,9.97
2018-06-12T20:18:34.326Z,10.70
2018-06-12T20:21:02.654Z,11.30
2018-06-12T20:23:31.026Z,12.50
2018-06-12T20:25:59.381Z,12.13
2018-06-12T20:28:27.720Z,11.10
2018-06-12T20:30:56.164Z,10.10
2018-06-12T20:33:24.664Z,10.33
2018-06-12T20:35:52.990Z,11.90
2018-06-12T20:38:21.344Z,10.40
2018-06-12T20:40:49.714Z,9.97
2018-06-12T20:43:18.057Z,10.43
2018-06-12T20:45:46.440Z,10.80
2018-06-12T20:48:14.785Z,10.33
2018-06-12T20:50:43.148Z,9.87
2018-06-12T20:53:11.544Z,10.17
2018-06-12T20:55:39.873Z,8.77
2018-06-12T20:58:08.256Z,9.67
2018-06-12T21:00:36.623Z,10.70
2018-06-12T21:03:04.999Z,10.33
2018-06-12T21:05:33.333Z,9.87
2018-06-12T21:08:01.696Z,10.40
2018-06-12T21:10:30.086Z,10.40
2018-06-12T21:12:58.444Z,10.23
2018-06-12T21:15:26.757Z,10.77
2018-06-12T21:17:55.154Z,10.33
2018-06-12T21:20:23.483Z,9.60
2018-06-12T21:22:52.060Z,10.63
2018-06-12T21:25:20.444Z,9.47
2018-06-12T21:27:48.811Z,10.37
2018-06-12T21:30:17.209Z,9.23
2018-06-12T21:32:45.570Z,8.00
2018-06-12T21:35:13.904Z,9.20
2018-06-12T21:37:42.347Z,8.23
2018-06-12T21:40:10.722Z,9.40
2018-06-12T21:42:39.073Z,8.57
2018-06-12T21:45:07.477Z,8.90
2018-06-12T21:47:35.804Z,8.53
2018-06-12T21:50:04.214Z,8.70
2018-06-12T21:52:32.612Z,8.57
2018-06-12T21:55:00.973Z,7.87
2018-06-12T21:57:29.323Z,6.90
2018-06-12T21:59:57.692Z,7.83
2018-06-12T22:02:26.046Z,7.87
2018-06-12T22:04:54.425Z,8.30
2018-06-12T22:07:22.780Z,8.47
2018-06-12T22:09:51.189Z,7.50
2018-06-12T22:12:19.568Z,8.10
2018-06-12T22:14:47.920Z,7.70
2018-06-12T22:17:16.276Z,7.30
2018-06-12T22:19:44.674Z,8.30
2018-06-12T22:22:13.072Z,8.73
2018-06-12T22:24:41.474Z,6.97
2018-06-12T22:27:09.826Z,7.27
2018-06-12T22:29:38.163Z,7.23
2018-06-12T22:32:06.650Z,6.97
2018-06-12T22:34:35.040Z,5.97
2018-06-12T22:37:03.368Z,6.50
2018-06-12T22:39:31.750Z,6.50
2018-06-12T22:42:00.072Z,6.43
2018-06-12T22:44:28.396Z,5.97
2018-06-12T22:46:56.736Z,6.80
2018-06-12T22:49:25.152Z,7.20
2018-06-12T22:51:53.489Z,6.47
2018-06-12T22:54:21.790Z,6.03
2018-06-12T22:56:50.332Z,6.27
2018-06-12T22:59:18.683Z,6.07
2018-06-12T23:01:47.011Z,5.90
2018-06-12T23:04:15.471Z,5.30
2018-06-12T23:06:43.782Z,5.70
2018-06-12T23:09:12.168Z,6.20
2018-06-12T23:11:40.512Z,4.73
2018-06-12T23:14:08.850Z,5.40
2018-06-12T23:16:37.240Z,4.90
2018-06-12T23:19:05.623Z,5.53
2018-06-12T23:21:46.772Z,5.63
2018-06-12T23:24:15.095Z,4.47
2018-06-12T23:26:43.482Z,4.80
2018-06-12T23:29:11.877Z,5.00
2018-06-12T23:31:40.195Z,4.90
2018-06-12T23:34:08.801Z,4.43
2018-06-12T23:36:37.139Z,5.00
2018-06-12T23:39:07.464Z,4.10
2018-06-12T23:41:35.925Z,4.80
2018-06-12T23:44:04.306Z,5.07
2018-06-12T23:46:32.659Z,4.83
2018-06-12T23:49:01.065Z,4.73
2018-06-12T23:51:29.426Z,4.73
2018-06-12T23:53:57.738Z,4.47
2018-06-12T23:56:26.140Z,5.10
2018-06-12T23:58:54.511Z,5.03
